Bigastro, Spain
Current Conditions -  °F | °C
As of 7:00 PM on Monday 26 Jan 2015 (Local Time) from LERI Reporting Station
Clear Clear  
Wind Chill: 52°   Ceiling: Unl
Heat Index: 52°   Visibility: 6mi
Dew Point: 39°   Wind: 5mph
Humidity: 62%   Direction: 270°W
Pressure: 30.3"   Gusts: NA
Location:  38.06°N, 0.9°W
Report Text: LERI 261800Z 27004KT CAVOK 11/04 Q1026 NOSIG
Loading
Personal Weather Stations






























Interactive Weather Map New forecast layout! Learn more

10-Day Weather Forecast

Advertisements
Track Severe Weather on mobile